Seas 11 — A8ZT4 — position and weather

sailwx.info

Track history (hours):
 
Tides and Currents Weather Stations Pressure Air Temp Water Temp Dewpoint Dewpoint Depression Visibility Wind Speed Wind Dir Waves Ship Positions

Seas 11

Last reported at 2018-Jan-22 19:27 UTC. Time now 2018-Feb-25 00:02 UTC.
Position N 09°11' W 079°52'.
Warning: this ship's position is 33 days out of date.

Length 190 m; draft 10.2 m.

Type: Cargo ship. MMSI: 636015294.

Date/timePositionNaut miles runAvg speedWind from/ knotsBaromVisibWave heightAir tempDewpointWater temp
2018-Jan-22 19:27N 09°11' W 079°52'2 5.4
2018-Jan-22 19:00N 09°12' W 079°54'2 4.0
2018-Jan-22 18:29N 09°13' W 079°56'0 0.1
2018-Jan-22 17:33N 09°13' W 079°56'0 0.0
2018-Jan-22 16:33N 09°13' W 079°56'0 0.0
2018-Jan-22 15:33N 09°13' W 079°56'0 0.0
2018-Jan-22 15:15N 09°13' W 079°56'0 0.0
2018-Jan-22 14:48N 09°13' W 079°56'0 0.0
2018-Jan-22 13:48N 09°13' W 079°56'0 0.0
2018-Jan-22 13:27N 09°13' W 079°56'0 0.0
2018-Jan-22 12:57N 09°13' W 079°56'0 0.1
2018-Jan-22 12:30N 09°13' W 079°56'0 0.0
2018-Jan-22 12:00N 09°13' W 079°56'0 0.1
2018-Jan-22 11:27N 09°13' W 079°56'0 0.0
2018-Jan-22 10:57N 09°13' W 079°56'0 0.0
2018-Jan-22 09:57N 09°13' W 079°56'0 0.0
2018-Jan-22 09:24N 09°13' W 079°56'0 0.1
2018-Jan-22 08:57N 09°13' W 079°56'0 0.0
2018-Jan-22 07:21N 09°13' W 079°56'0 0.1
2018-Jan-22 07:00N 09°13' W 079°56'0 0.0
2018-Jan-22 06:09N 09°13' W 079°56'0 0.0
2018-Jan-22 05:57N 09°13' W 079°56'0 0.0
2018-Jan-22 05:27N 09°13' W 079°56'0 0.0
2018-Jan-22 04:48N 09°13' W 079°56'0 0.0
2018-Jan-22 04:27N 09°13' W 079°56'0 0.0
2018-Jan-22 04:00N 09°13' W 079°56'0 0.0
2018-Jan-22 03:24N 09°13' W 079°56'0 0.0
2018-Jan-22 02:00N 09°13' W 079°56'0 0.0
2018-Jan-22 01:09N 09°13' W 079°56'0 0.0
2018-Jan-22 00:57N 09°13' W 079°56'0 0.0
2018-Jan-22 00:27N 09°13' W 079°56'0 0.0
2018-Jan-21 20:42N 09°13' W 079°56'0 0.0
2018-Jan-21 20:24N 09°13' W 079°56'0 0.0
2018-Jan-21 18:00N 09°13' W 079°56'0 0.0
2018-Jan-21 14:12N 09°13' W 079°56'0 0.0
2018-Jan-21 14:00N 09°13' W 079°56'0 0.0
2018-Jan-21 13:30N 09°13' W 079°56'0 0.0
2018-Jan-21 13:00N 09°13' W 079°56'0 0.0
2018-Jan-21 12:18N 09°13' W 079°56'0 0.0
2018-Jan-21 11:33N 09°13' W 079°56'0 0.0
2018-Jan-21 11:30N 09°13' W 079°56'0 0.0
2018-Jan-21 10:57N 09°13' W 079°56'0 0.1
2018-Jan-21 10:27N 09°13' W 079°56'0 0.0
2018-Jan-21 10:00N 09°13' W 079°56'0 0.0
2018-Jan-21 09:30N 09°13' W 079°56'0 0.0
2018-Jan-21 08:57N 09°13' W 079°56'0 0.0
2018-Jan-21 08:15N 09°13' W 079°56'0 0.0
2018-Jan-21 07:51N 09°13' W 079°56'0 0.1
2018-Jan-21 07:30N 09°13' W 079°56'0 0.4
2018-Jan-21 06:57N 09°13' W 079°56'0 0.5
2018-Jan-21 06:30N 09°14' W 079°56'2 3.9
2018-Jan-21 06:00N 09°16' W 079°55'1 1.3
2018-Jan-21 05:30N 09°16' W 079°55'0 0.7
2018-Jan-21 05:00N 09°17' W 079°55'0 0.6
2018-Jan-21 04:30N 09°17' W 079°55'1 2.2
2018-Jan-21 04:00N 09°18' W 079°55'4 8.0
2018-Jan-21 03:30N 09°22' W 079°55'0 0.9
2018-Jan-21 02:58N 09°22' W 079°56'0 0.0
2018-Jan-21 02:28N 09°22' W 079°56'0 0.0
2018-Jan-21 01:58N 09°22' W 079°56'0 0.1
2018-Jan-21 01:28N 09°22' W 079°56'0 0.0
2018-Jan-21 00:58N 09°22' W 079°56'0 0.0
2018-Jan-21 00:28N 09°22' W 079°56'0 0.0
2018-Jan-20 23:58N 09°22' W 079°56'0 0.0
2018-Jan-20 23:28N 09°22' W 079°56'0 0.0
2018-Jan-20 22:58N 09°22' W 079°56'0 0.0
2018-Jan-20 22:25N 09°22' W 079°56'0 0.0
2018-Jan-20 21:58N 09°22' W 079°56'0 0.0
2018-Jan-20 21:28N 09°22' W 079°56'0 0.0
2018-Jan-20 20:58N 09°22' W 079°56'0 0.0
2018-Jan-20 20:28N 09°22' W 079°56'0 0.0
2018-Jan-20 19:58N 09°22' W 079°56'0 0.0
2018-Jan-20 19:28N 09°22' W 079°56'0 0.0
2018-Jan-20 18:58N 09°22' W 079°56'0 0.0
2018-Jan-20 18:28N 09°22' W 079°56'0 0.0
2018-Jan-20 17:58N 09°22' W 079°56'0 0.0
2018-Jan-20 17:28N 09°22' W 079°56'0 0.0
2018-Jan-20 16:58N 09°22' W 079°56'0 0.1
2018-Jan-20 16:28N 09°22' W 079°56'0 0.1
2018-Jan-20 15:58N 09°22' W 079°56'0 0.9
2018-Jan-20 15:28N 09°23' W 079°55'2 5.2
2018-Jan-20 15:00N 09°25' W 079°55'2 3.0
2018-Jan-20 14:28N 09°26' W 079°56'0 0.1
2018-Jan-20 13:58N 09°26' W 079°56'0 0.0
2018-Jan-20 13:28N 09°26' W 079°56'0 0.1
2018-Jan-20 12:58N 09°26' W 079°56'0 0.1
2018-Jan-20 12:28N 09°26' W 079°56'0 0.0
2018-Jan-20 11:58N 09°26' W 079°56'0 0.1
2018-Jan-20 11:28N 09°26' W 079°56'0 0.2
2018-Jan-20 10:58N 09°27' W 079°56'0 0.1
2018-Jan-20 10:28N 09°27' W 079°56'0 0.0
2018-Jan-20 09:58N 09°27' W 079°56'0 0.0
2018-Jan-20 09:28N 09°27' W 079°56'0 0.3
2018-Jan-20 08:58N 09°26' W 079°56'0 0.1
2018-Jan-20 08:28N 09°26' W 079°56'0 0.3
2018-Jan-20 07:58N 09°26' W 079°56'0 0.1
2018-Jan-20 07:28N 09°26' W 079°56'0 0.1
2018-Jan-20 06:58N 09°26' W 079°56'0 0.3
2018-Jan-20 06:28N 09°26' W 079°56'0 0.1
2018-Jan-20 05:58N 09°26' W 079°56'0 0.0
2018-Jan-20 05:28N 09°26' W 079°56'0 0.0
2018-Jan-20 04:58N 09°26' W 079°56'0 0.2
2018-Jan-20 04:28N 09°26' W 079°56'0 0.2
2018-Jan-20 03:58N 09°26' W 079°56'0 0.1
2018-Jan-20 03:28N 09°26' W 079°56'0 0.1
2018-Jan-20 02:58N 09°26' W 079°56'0 0.0
2018-Jan-20 02:28N 09°26' W 079°56'0 0.1
2018-Jan-20 01:58N 09°27' W 079°56'0 0.2
2018-Jan-20 01:28N 09°27' W 079°56'0 0.1
2018-Jan-20 00:58N 09°27' W 079°56'0 0.0
2018-Jan-20 00:28N 09°27' W 079°56'0 0.2
2018-Jan-19 23:58N 09°27' W 079°56'0 0.2
2018-Jan-19 23:28N 09°27' W 079°56'0 0.1
2018-Jan-19 22:58N 09°27' W 079°56'0 0.1
2018-Jan-19 22:25N 09°27' W 079°56'0 0.1
2018-Jan-19 21:58N 09°27' W 079°56'0 0.2
2018-Jan-19 21:28N 09°27' W 079°56'0 0.2
2018-Jan-19 20:58N 09°27' W 079°56'0 0.1
2018-Jan-19 20:28N 09°27' W 079°56'0 0.0
2018-Jan-19 19:58N 09°27' W 079°56'0 0.2
2018-Jan-19 19:28N 09°27' W 079°56'0 0.1
2018-Jan-19 18:55N 09°27' W 079°56'0 0.1
2018-Jan-19 18:28N 09°27' W 079°56'0 0.0
2018-Jan-19 17:58N 09°27' W 079°56'0 0.0
2018-Jan-19 17:28N 09°27' W 079°56'0 0.0
2018-Jan-19 16:58N 09°27' W 079°56'0 0.0
2018-Jan-19 16:28N 09°27' W 079°56'0 0.1
2018-Jan-19 15:58N 09°27' W 079°56'0 0.2
2018-Jan-19 15:28N 09°27' W 079°56'1 1.3
2018-Jan-19 15:00N 09°27' W 079°56'4 7.2
2018-Jan-19 14:30N 09°30' W 079°54'3 6.1
2018-Jan-19 14:00N 09°33' W 079°53'5 9.5
2018-Jan-19 13:28N 09°38' W 079°52'  
Track history (hours):
 
Tides and Currents Weather Stations Pressure Air Temp Water Temp Dewpoint Dewpoint Depression Visibility Wind Speed Wind Dir Waves Ship Positions

Seas 11

Last reported at 2018-Jan-22 19:27 UTC. Time now 2018-Feb-25 00:02 UTC.
Position N 09°11' W 079°52'.
Warning: this ship's position is 33 days out of date.

Length 190 m; draft 10.2 m.

Type: Cargo ship. MMSI: 636015294.

Date/timePositionNaut miles runAvg speedWind from/ knotsBaromVisibWave heightAir tempDewpointWater temp
2018-Jan-22 19:27N 09°11' W 079°52'2 5.4
2018-Jan-22 19:00N 09°12' W 079°54'2 4.0
2018-Jan-22 18:29N 09°13' W 079°56'0 0.1
2018-Jan-22 17:33N 09°13' W 079°56'0 0.0
2018-Jan-22 16:33N 09°13' W 079°56'0 0.0
2018-Jan-22 15:33N 09°13' W 079°56'0 0.0
2018-Jan-22 15:15N 09°13' W 079°56'0 0.0
2018-Jan-22 14:48N 09°13' W 079°56'0 0.0
2018-Jan-22 13:48N 09°13' W 079°56'0 0.0
2018-Jan-22 13:27N 09°13' W 079°56'0 0.0
2018-Jan-22 12:57N 09°13' W 079°56'0 0.1
2018-Jan-22 12:30N 09°13' W 079°56'0 0.0
2018-Jan-22 12:00N 09°13' W 079°56'0 0.1
2018-Jan-22 11:27N 09°13' W 079°56'0 0.0
2018-Jan-22 10:57N 09°13' W 079°56'0 0.0
2018-Jan-22 09:57N 09°13' W 079°56'0 0.0
2018-Jan-22 09:24N 09°13' W 079°56'0 0.1
2018-Jan-22 08:57N 09°13' W 079°56'0 0.0
2018-Jan-22 07:21N 09°13' W 079°56'0 0.1
2018-Jan-22 07:00N 09°13' W 079°56'0 0.0
2018-Jan-22 06:09N 09°13' W 079°56'0 0.0
2018-Jan-22 05:57N 09°13' W 079°56'0 0.0
2018-Jan-22 05:27N 09°13' W 079°56'0 0.0
2018-Jan-22 04:48N 09°13' W 079°56'0 0.0
2018-Jan-22 04:27N 09°13' W 079°56'0 0.0
2018-Jan-22 04:00N 09°13' W 079°56'0 0.0
2018-Jan-22 03:24N 09°13' W 079°56'0 0.0
2018-Jan-22 02:00N 09°13' W 079°56'0 0.0
2018-Jan-22 01:09N 09°13' W 079°56'0 0.0
2018-Jan-22 00:57N 09°13' W 079°56'0 0.0
2018-Jan-22 00:27N 09°13' W 079°56'0 0.0
2018-Jan-21 20:42N 09°13' W 079°56'0 0.0
2018-Jan-21 20:24N 09°13' W 079°56'0 0.0
2018-Jan-21 18:00N 09°13' W 079°56'0 0.0
2018-Jan-21 14:12N 09°13' W 079°56'0 0.0
2018-Jan-21 14:00N 09°13' W 079°56'0 0.0
2018-Jan-21 13:30N 09°13' W 079°56'0 0.0
2018-Jan-21 13:00N 09°13' W 079°56'0 0.0
2018-Jan-21 12:18N 09°13' W 079°56'0 0.0
2018-Jan-21 11:33N 09°13' W 079°56'0 0.0
2018-Jan-21 11:30N 09°13' W 079°56'0 0.0
2018-Jan-21 10:57N 09°13' W 079°56'0 0.1
2018-Jan-21 10:27N 09°13' W 079°56'0 0.0
2018-Jan-21 10:00N 09°13' W 079°56'0 0.0
2018-Jan-21 09:30N 09°13' W 079°56'0 0.0
2018-Jan-21 08:57N 09°13' W 079°56'0 0.0
2018-Jan-21 08:15N 09°13' W 079°56'0 0.0
2018-Jan-21 07:51N 09°13' W 079°56'0 0.1
2018-Jan-21 07:30N 09°13' W 079°56'0 0.4
2018-Jan-21 06:57N 09°13' W 079°56'0 0.5
2018-Jan-21 06:30N 09°14' W 079°56'2 3.9
2018-Jan-21 06:00N 09°16' W 079°55'1 1.3
2018-Jan-21 05:30N 09°16' W 079°55'0 0.7
2018-Jan-21 05:00N 09°17' W 079°55'0 0.6
2018-Jan-21 04:30N 09°17' W 079°55'1 2.2
2018-Jan-21 04:00N 09°18' W 079°55'4 8.0
2018-Jan-21 03:30N 09°22' W 079°55'0 0.9
2018-Jan-21 02:58N 09°22' W 079°56'0 0.0
2018-Jan-21 02:28N 09°22' W 079°56'0 0.0
2018-Jan-21 01:58N 09°22' W 079°56'0 0.1
2018-Jan-21 01:28N 09°22' W 079°56'0 0.0
2018-Jan-21 00:58N 09°22' W 079°56'0 0.0
2018-Jan-21 00:28N 09°22' W 079°56'0 0.0
2018-Jan-20 23:58N 09°22' W 079°56'0 0.0
2018-Jan-20 23:28N 09°22' W 079°56'0 0.0
2018-Jan-20 22:58N 09°22' W 079°56'0 0.0
2018-Jan-20 22:25N 09°22' W 079°56'0 0.0
2018-Jan-20 21:58N 09°22' W 079°56'0 0.0
2018-Jan-20 21:28N 09°22' W 079°56'0 0.0
2018-Jan-20 20:58N 09°22' W 079°56'0 0.0
2018-Jan-20 20:28N 09°22' W 079°56'0 0.0
2018-Jan-20 19:58N 09°22' W 079°56'0 0.0
2018-Jan-20 19:28N 09°22' W 079°56'0 0.0
2018-Jan-20 18:58N 09°22' W 079°56'0 0.0
2018-Jan-20 18:28N 09°22' W 079°56'0 0.0
2018-Jan-20 17:58N 09°22' W 079°56'0 0.0
2018-Jan-20 17:28N 09°22' W 079°56'0 0.0
2018-Jan-20 16:58N 09°22' W 079°56'0 0.1
2018-Jan-20 16:28N 09°22' W 079°56'0 0.1
2018-Jan-20 15:58N 09°22' W 079°56'0 0.9
2018-Jan-20 15:28N 09°23' W 079°55'2 5.2
2018-Jan-20 15:00N 09°25' W 079°55'2 3.0
2018-Jan-20 14:28N 09°26' W 079°56'0 0.1
2018-Jan-20 13:58N 09°26' W 079°56'0 0.0
2018-Jan-20 13:28N 09°26' W 079°56'0 0.1
2018-Jan-20 12:58N 09°26' W 079°56'0 0.1
2018-Jan-20 12:28N 09°26' W 079°56'0 0.0
2018-Jan-20 11:58N 09°26' W 079°56'0 0.1
2018-Jan-20 11:28N 09°26' W 079°56'0 0.2
2018-Jan-20 10:58N 09°27' W 079°56'0 0.1
2018-Jan-20 10:28N 09°27' W 079°56'0 0.0
2018-Jan-20 09:58N 09°27' W 079°56'0 0.0
2018-Jan-20 09:28N 09°27' W 079°56'0 0.3
2018-Jan-20 08:58N 09°26' W 079°56'0 0.1
2018-Jan-20 08:28N 09°26' W 079°56'0 0.3
2018-Jan-20 07:58N 09°26' W 079°56'0 0.1
2018-Jan-20 07:28N 09°26' W 079°56'0 0.1
2018-Jan-20 06:58N 09°26' W 079°56'0 0.3
2018-Jan-20 06:28N 09°26' W 079°56'0 0.1
2018-Jan-20 05:58N 09°26' W 079°56'0 0.0
2018-Jan-20 05:28N 09°26' W 079°56'0 0.0
2018-Jan-20 04:58N 09°26' W 079°56'0 0.2
2018-Jan-20 04:28N 09°26' W 079°56'0 0.2
2018-Jan-20 03:58N 09°26' W 079°56'0 0.1
2018-Jan-20 03:28N 09°26' W 079°56'0 0.1
2018-Jan-20 02:58N 09°26' W 079°56'0 0.0
2018-Jan-20 02:28N 09°26' W 079°56'0 0.1
2018-Jan-20 01:58N 09°27' W 079°56'0 0.2
2018-Jan-20 01:28N 09°27' W 079°56'0 0.1
2018-Jan-20 00:58N 09°27' W 079°56'0 0.0
2018-Jan-20 00:28N 09°27' W 079°56'0 0.2
2018-Jan-19 23:58N 09°27' W 079°56'0 0.2
2018-Jan-19 23:28N 09°27' W 079°56'0 0.1
2018-Jan-19 22:58N 09°27' W 079°56'0 0.1
2018-Jan-19 22:25N 09°27' W 079°56'0 0.1
2018-Jan-19 21:58N 09°27' W 079°56'0 0.2
2018-Jan-19 21:28N 09°27' W 079°56'0 0.2
2018-Jan-19 20:58N 09°27' W 079°56'0 0.1
2018-Jan-19 20:28N 09°27' W 079°56'0 0.0
2018-Jan-19 19:58N 09°27' W 079°56'0 0.2
2018-Jan-19 19:28N 09°27' W 079°56'0 0.1
2018-Jan-19 18:55N 09°27' W 079°56'0 0.1
2018-Jan-19 18:28N 09°27' W 079°56'0 0.0
2018-Jan-19 17:58N 09°27' W 079°56'0 0.0
2018-Jan-19 17:28N 09°27' W 079°56'0 0.0
2018-Jan-19 16:58N 09°27' W 079°56'0 0.0
2018-Jan-19 16:28N 09°27' W 079°56'0 0.1
2018-Jan-19 15:58N 09°27' W 079°56'0 0.2
2018-Jan-19 15:28N 09°27' W 079°56'1 1.3
2018-Jan-19 15:00N 09°27' W 079°56'4 7.2
2018-Jan-19 14:30N 09°30' W 079°54'3 6.1
2018-Jan-19 14:00N 09°33' W 079°53'5 9.5
2018-Jan-19 13:28N 09°38' W 079°52'  

Dump ship's entire track history